PWSweather.com
Personal Weather Stations
Station Observations
KMAMEDFI2
Medfield, MA 02052

Medfield, MA 02052

Lat: 42.1900822, Lon: -71.3296889

Elevation: 138

Station Type: Rainwise WS MK-III

http://www.medfieldweather.com

High Low Average
Temperature 38.1°F3.4°C 11.1°F-11.6°C 26.0°F-3.3°C
Dew Point 30.6°F-0.8°C 9.5°F-12.5°C 21.9°F-5.6°C
Winds 5.8 mph 9.3 kmh Calm Calm 1.0 mph SSW1.6 kmh SSW
Wind Gusts 5.8 mph9.3 kmh -- 1.0 mph1.6 kmh
Humidity 95% 54% 86%
Pressure 31.53 in1067.7 mb 30.45 in1031.2 mb -
Precipitation 0.05 in1.3 mm - -
Hour Temp Dew Point Humidity Winds Wind Gusts Pressure Precip Precip Rate Daily Precip Total
12:00 AM 25.4°F-3.7°C 23.9°F-4.5°C 94% 1.2 mph S1.9 kmh S 1.2 mph1.9 kmh 31.42 in1064.0 mb - 0.00 in0.0 mm 0.00 in0.0 mm
12:10 AM 24.9°F-3.9°C 23.2°F-4.9°C 93% 1.2 mph NW1.9 kmh NW 2.3 mph3.7 kmh 31.41 in1063.7 mb - 0.00 in0.0 mm 0.00 in0.0 mm
12:20 AM 24.2°F-4.3°C 22.5°F-5.3°C 93% Calm Calm 1.2 mph1.9 kmh 31.41 in1063.7 mb - 0.00 in0.0 mm 0.00 in0.0 mm
12:30 AM 23.9°F-4.5°C 22.2°F-5.4°C 93% 1.2 mph NNE1.9 kmh NNE -- 31.43 in1064.3 mb - 0.00 in0.0 mm 0.00 in0.0 mm
12:40 AM 23.9°F-4.5°C 22.2°F-5.4°C 93% 3.5 mph E5.6 kmh E 2.3 mph3.7 kmh 31.42 in1064.0 mb - 0.00 in0.0 mm 0.00 in0.0 mm
12:50 AM 23.6°F-4.7°C 21.9°F-5.6°C 93% Calm Calm -- 31.43 in1064.3 mb - 0.00 in0.0 mm 0.00 in0.0 mm
01:00 AM 22.6°F-5.2°C 20.9°F-6.2°C 93% Calm Calm 1.2 mph1.9 kmh 31.42 in1064.0 mb - 0.00 in0.0 mm 0.00 in0.0 mm
01:10 AM 21.9°F-5.6°C 20.2°F-6.6°C 93% Calm Calm 2.3 mph3.7 kmh 31.42 in1064.0 mb - 0.00 in0.0 mm 0.00 in0.0 mm
01:20 AM 21.5°F-5.8°C 19.8°F-6.8°C 93% Calm Calm -- 31.42 in1064.0 mb - 0.00 in0.0 mm 0.00 in0.0 mm
01:30 AM 20.9°F-6.2°C 19.2°F-7.1°C 93% Calm Calm -- 31.43 in1064.3 mb - 0.00 in0.0 mm 0.00 in0.0 mm
01:40 AM 21.6°F-5.8°C 19.9°F-6.7°C 93% 1.2 mph WSW1.9 kmh WSW -- 31.43 in1064.3 mb - 0.00 in0.0 mm 0.00 in0.0 mm
01:50 AM 21.3°F-5.9°C 19.6°F-6.9°C 93% Calm Calm -- 31.44 in1064.7 mb - 0.00 in0.0 mm 0.00 in0.0 mm
02:00 AM 20.4°F-6.4°C 18.7°F-7.4°C 93% Calm Calm -- 31.45 in1065.0 mb - 0.00 in0.0 mm 0.00 in0.0 mm
02:10 AM 20.1°F-6.6°C 18.4°F-7.6°C 93% Calm Calm -- 31.44 in1064.7 mb - 0.00 in0.0 mm 0.00 in0.0 mm
02:20 AM 19.7°F-6.8°C 18.0°F-7.8°C 93% Calm Calm -- 31.44 in1064.7 mb - 0.00 in0.0 mm 0.00 in0.0 mm
02:30 AM 19.6°F-6.9°C 17.9°F-7.8°C 93% 1.2 mph NNW1.9 kmh NNW 1.2 mph1.9 kmh 31.44 in1064.7 mb - 0.00 in0.0 mm 0.00 in0.0 mm
02:40 AM 19.4°F-7.0°C 17.7°F-7.9°C 93% Calm Calm -- 31.44 in1064.7 mb - 0.00 in0.0 mm 0.00 in0.0 mm
02:50 AM 19.6°F-6.9°C 17.9°F-7.8°C 93% 1.2 mph W1.9 kmh W 2.3 mph3.7 kmh 31.44 in1064.7 mb - 0.00 in0.0 mm 0.00 in0.0 mm
03:00 AM 20.8°F-6.2°C 19.1°F-7.2°C 93% Calm Calm -- 31.45 in1065.0 mb - 0.00 in0.0 mm 0.00 in0.0 mm
03:10 AM 20.4°F-6.4°C 18.7°F-7.4°C 93% Calm Calm -- 31.45 in1065.0 mb - 0.00 in0.0 mm 0.00 in0.0 mm
03:20 AM 19.5°F-6.9°C 17.8°F-7.9°C 93% Calm Calm -- 31.45 in1065.0 mb - 0.00 in0.0 mm 0.00 in0.0 mm
03:30 AM 18.2°F-7.7°C 16.5°F-8.6°C 93% Calm Calm -- 31.46 in1065.4 mb - 0.00 in0.0 mm 0.00 in0.0 mm
03:40 AM 17.4°F-8.1°C 15.7°F-9.1°C 93% Calm Calm -- 31.45 in1065.0 mb - 0.00 in0.0 mm 0.00 in0.0 mm
03:50 AM 17.9°F-7.8°C 16.2°F-8.8°C 93% Calm Calm -- 31.45 in1065.0 mb - 0.00 in0.0 mm 0.00 in0.0 mm
04:00 AM 17.6°F-8.0°C 16.0°F-8.9°C 93% Calm Calm -- 31.46 in1065.4 mb - 0.00 in0.0 mm 0.00 in0.0 mm
04:10 AM 16.9°F-8.4°C 15.3°F-9.3°C 93% Calm Calm -- 31.46 in1065.4 mb - 0.00 in0.0 mm 0.00 in0.0 mm
04:20 AM 15.8°F-9.0°C 14.2°F-9.9°C 93% Calm Calm -- 31.48 in1066.0 mb - 0.00 in0.0 mm 0.00 in0.0 mm
04:30 AM 15.3°F-9.3°C 13.7°F-10.2°C 93% Calm Calm -- 31.48 in1066.0 mb - 0.00 in0.0 mm 0.00 in0.0 mm
04:40 AM 15.4°F-9.2°C 13.8°F-10.1°C 93% Calm Calm -- 31.48 in1066.0 mb - 0.00 in0.0 mm 0.00 in0.0 mm
04:50 AM 15.1°F-9.4°C 13.5°F-10.3°C 93% Calm Calm -- 31.48 in1066.0 mb - 0.00 in0.0 mm 0.00 in0.0 mm
05:00 AM 14.9°F-9.5°C 13.2°F-10.4°C 93% Calm Calm -- 31.48 in1066.0 mb - 0.00 in0.0 mm 0.00 in0.0 mm
05:10 AM 15.2°F-9.3°C 13.6°F-10.2°C 93% Calm Calm -- 31.49 in1066.4 mb - 0.00 in0.0 mm 0.00 in0.0 mm
05:20 AM 14.4°F-9.8°C 12.8°F-10.7°C 93% Calm Calm -- 31.50 in1066.7 mb - 0.00 in0.0 mm 0.00 in0.0 mm
05:30 AM 14.5°F-9.7°C 12.9°F-10.6°C 93% Calm Calm -- 31.50 in1066.7 mb - 0.00 in0.0 mm 0.00 in0.0 mm
05:40 AM 14.1°F-9.9°C 12.5°F-10.8°C 93% Calm Calm -- 31.51 in1067.1 mb - 0.00 in0.0 mm 0.00 in0.0 mm
05:50 AM 14.1°F-9.9°C 12.4°F-10.9°C 93% Calm Calm -- 31.51 in1067.1 mb - 0.00 in0.0 mm 0.00 in0.0 mm
06:00 AM 13.3°F-10.4°C 11.7°F-11.3°C 93% Calm Calm -- 31.51 in1067.1 mb - 0.00 in0.0 mm 0.00 in0.0 mm
06:10 AM 12.8°F-10.7°C 11.2°F-11.6°C 93% Calm Calm -- 31.51 in1067.1 mb - 0.00 in0.0 mm 0.00 in0.0 mm
06:20 AM 13.1°F-10.5°C 11.5°F-11.4°C 93% Calm Calm -- 31.52 in1067.4 mb - 0.00 in0.0 mm 0.00 in0.0 mm
06:30 AM 13.4°F-10.3°C 11.8°F-11.2°C 93% Calm Calm -- 31.52 in1067.4 mb - 0.00 in0.0 mm 0.00 in0.0 mm
06:40 AM 13.6°F-10.2°C 12.0°F-11.1°C 93% Calm Calm -- 31.53 in1067.7 mb - 0.00 in0.0 mm 0.00 in0.0 mm
06:50 AM 12.3°F-10.9°C 10.6°F-11.9°C 93% Calm Calm -- 31.53 in1067.7 mb - 0.00 in0.0 mm 0.00 in0.0 mm
07:00 AM 11.3°F-11.5°C 9.6°F-12.4°C 93% Calm Calm -- 31.53 in1067.7 mb - 0.00 in0.0 mm 0.00 in0.0 mm
07:10 AM 11.1°F-11.6°C 9.5°F-12.5°C 93% Calm Calm -- 31.53 in1067.7 mb - 0.00 in0.0 mm 0.00 in0.0 mm
07:20 AM 11.2°F-11.6°C 9.6°F-12.4°C 93% Calm Calm -- 31.52 in1067.4 mb - 0.00 in0.0 mm 0.00 in0.0 mm
07:30 AM 12.3°F-10.9°C 10.6°F-11.9°C 93% 3.5 mph WSW5.6 kmh WSW 2.3 mph3.7 kmh 31.52 in1067.4 mb - 0.00 in0.0 mm 0.00 in0.0 mm
07:40 AM 12.9°F-10.6°C 11.3°F-11.5°C 93% Calm Calm -- 31.52 in1067.4 mb - 0.00 in0.0 mm 0.00 in0.0 mm
07:50 AM 13.6°F-10.2°C 12.0°F-11.1°C 93% Calm Calm -- 31.51 in1067.1 mb - 0.00 in0.0 mm 0.00 in0.0 mm
08:00 AM 14.3°F-9.8°C 12.7°F-10.7°C 93% Calm Calm -- 31.51 in1067.1 mb - 0.00 in0.0 mm 0.00 in0.0 mm
08:10 AM 15.1°F-9.4°C 13.4°F-10.3°C 93% Calm Calm -- 31.50 in1066.7 mb - 0.00 in0.0 mm 0.00 in0.0 mm
08:20 AM 15.6°F-9.1°C 14.0°F-10.0°C 93% Calm Calm -- 31.48 in1066.0 mb - 0.00 in0.0 mm 0.00 in0.0 mm
08:30 AM 15.5°F-9.2°C 13.8°F-10.1°C 93% Calm Calm -- 31.46 in1065.4 mb - 0.00 in0.0 mm 0.00 in0.0 mm
08:40 AM 16.3°F-8.7°C 14.6°F-9.7°C 93% Calm Calm -- 31.28 in1059.3 mb - 0.00 in0.0 mm 0.00 in0.0 mm
08:50 AM 18.5°F-7.5°C 16.8°F-8.4°C 93% 2.3 mph WNW3.7 kmh WNW 2.3 mph3.7 kmh 31.30 in1059.9 mb - 0.00 in0.0 mm 0.00 in0.0 mm
09:00 AM 20.8°F-6.2°C 19.1°F-7.2°C 93% 1.2 mph WSW1.9 kmh WSW 1.2 mph1.9 kmh 31.28 in1059.3 mb - 0.00 in0.0 mm 0.00 in0.0 mm
09:10 AM 22.0°F-5.6°C 20.3°F-6.5°C 93% 3.5 mph WSW5.6 kmh WSW 2.3 mph3.7 kmh 31.18 in1055.9 mb - 0.00 in0.0 mm 0.00 in0.0 mm
09:20 AM 23.0°F-5.0°C 20.8°F-6.2°C 91% 2.3 mph W3.7 kmh W 2.3 mph3.7 kmh 30.85 in1044.7 mb - 0.00 in0.0 mm 0.00 in0.0 mm
09:30 AM 23.7°F-4.6°C 21.7°F-5.7°C 92% 3.5 mph SW5.6 kmh SW 2.3 mph3.7 kmh 31.04 in1051.1 mb - 0.00 in0.0 mm 0.00 in0.0 mm
09:40 AM 24.3°F-4.3°C 22.3°F-5.4°C 92% 1.2 mph SW1.9 kmh SW 1.2 mph1.9 kmh 31.05 in1051.5 mb - 0.00 in0.0 mm 0.00 in0.0 mm
09:50 AM 24.9°F-3.9°C 22.1°F-5.5°C 89% Calm Calm 2.3 mph3.7 kmh 31.03 in1050.8 mb - 0.00 in0.0 mm 0.00 in0.0 mm
10:00 AM 26.8°F-2.9°C 19.0°F-7.2°C 72% 1.2 mph WNW1.9 kmh WNW 1.2 mph1.9 kmh 30.52 in1033.5 mb - 0.00 in0.0 mm 0.00 in0.0 mm
10:10 AM 27.9°F-2.3°C 22.5°F-5.3°C 80% 2.3 mph SW3.7 kmh SW 1.2 mph1.9 kmh 30.90 in1046.4 mb - 0.00 in0.0 mm 0.00 in0.0 mm
10:20 AM 28.6°F-1.9°C 19.4°F-7.0°C 68% 3.5 mph SW5.6 kmh SW 2.3 mph3.7 kmh 30.80 in1043.0 mb - 0.00 in0.0 mm 0.00 in0.0 mm
10:30 AM 30.7°F-0.7°C 19.9°F-6.7°C 64% Calm Calm -- 30.45 in1031.2 mb - 0.00 in0.0 mm 0.00 in0.0 mm
10:40 AM 32.7°F0.4°C 21.8°F-5.7°C 64% Calm Calm -- 30.45 in1031.2 mb - 0.00 in0.0 mm 0.00 in0.0 mm
10:50 AM 33.5°F0.8°C 21.0°F-6.1°C 60% Calm Calm -- 30.49 in1032.5 mb - 0.00 in0.0 mm 0.00 in0.0 mm
11:00 AM 34.3°F1.3°C 21.8°F-5.7°C 60% 3.5 mph SE5.6 kmh SE 2.3 mph3.7 kmh 30.74 in1041.0 mb - 0.00 in0.0 mm 0.00 in0.0 mm
11:10 AM 35.4°F1.9°C 23.3°F-4.8°C 61% Calm Calm -- 30.82 in1043.7 mb - 0.00 in0.0 mm 0.00 in0.0 mm
11:20 AM 36.2°F2.3°C 23.6°F-4.7°C 60% Calm Calm 1.2 mph1.9 kmh 30.84 in1044.4 mb - 0.00 in0.0 mm 0.00 in0.0 mm
11:30 AM 35.9°F2.2°C 23.7°F-4.6°C 61% 1.2 mph SE1.9 kmh SE 1.2 mph1.9 kmh 30.84 in1044.4 mb - 0.01 in0.3 mm 0.01 in0.3 mm
11:40 AM 36.9°F2.7°C 23.1°F-4.9°C 57% Calm Calm 1.2 mph1.9 kmh 30.83 in1044.0 mb - 0.00 in0.0 mm 0.01 in0.3 mm
11:50 AM 36.5°F2.5°C 23.9°F-4.5°C 60% 1.2 mph SW1.9 kmh SW 2.3 mph3.7 kmh 30.84 in1044.4 mb - 0.00 in0.0 mm 0.01 in0.3 mm
12:00 PM 37.3°F2.9°C 23.9°F-4.5°C 58% 3.5 mph ESE5.6 kmh ESE 2.3 mph3.7 kmh 30.84 in1044.4 mb - 0.01 in0.3 mm 0.02 in0.5 mm
12:10 PM 37.8°F3.2°C 23.5°F-4.7°C 56% 5.8 mph S9.3 kmh S 3.5 mph5.6 kmh 30.85 in1044.7 mb - 0.00 in0.0 mm 0.02 in0.5 mm
12:20 PM 37.9°F3.3°C 22.7°F-5.2°C 54% 3.5 mph S5.6 kmh S 2.3 mph3.7 kmh 30.85 in1044.7 mb - 0.00 in0.0 mm 0.02 in0.5 mm
12:30 PM 38.0°F3.3°C 24.1°F-4.4°C 57% 2.3 mph W3.7 kmh W 1.2 mph1.9 kmh 30.85 in1044.7 mb - 0.01 in0.3 mm 0.03 in0.8 mm
12:40 PM 37.7°F3.2°C 23.4°F-4.8°C 56% 1.2 mph WSW1.9 kmh WSW 1.2 mph1.9 kmh 30.86 in1045.0 mb - 0.00 in0.0 mm 0.03 in0.8 mm
12:50 PM 37.8°F3.2°C 23.9°F-4.5°C 57% 2.3 mph SSE3.7 kmh SSE 2.3 mph3.7 kmh 30.86 in1045.0 mb - 0.01 in0.3 mm 0.04 in1.0 mm
01:00 PM 37.9°F3.3°C 24.0°F-4.4°C 57% 3.5 mph SE5.6 kmh SE 2.3 mph3.7 kmh 30.86 in1045.0 mb - 0.00 in0.0 mm 0.04 in1.0 mm
01:10 PM 37.8°F3.2°C 23.9°F-4.5°C 57% 3.5 mph SSE5.6 kmh SSE 2.3 mph3.7 kmh 30.86 in1045.0 mb - 0.00 in0.0 mm 0.04 in1.0 mm
01:20 PM 37.9°F3.3°C 24.4°F-4.2°C 58% 3.5 mph S5.6 kmh S 2.3 mph3.7 kmh 30.87 in1045.4 mb - 0.00 in0.0 mm 0.04 in1.0 mm
01:30 PM 37.9°F3.3°C 24.4°F-4.2°C 58% 3.5 mph S5.6 kmh S 2.3 mph3.7 kmh 30.87 in1045.4 mb - 0.00 in0.0 mm 0.04 in1.0 mm
01:40 PM 37.8°F3.2°C 24.3°F-4.3°C 58% 5.8 mph S9.3 kmh S 5.8 mph9.3 kmh 30.88 in1045.7 mb - 0.00 in0.0 mm 0.04 in1.0 mm
01:50 PM 38.1°F3.4°C 24.6°F-4.1°C 58% Calm Calm 1.2 mph1.9 kmh 30.88 in1045.7 mb - 0.00 in0.0 mm 0.04 in1.0 mm
02:00 PM 38.0°F3.3°C 24.9°F-3.9°C 59% 2.3 mph SW3.7 kmh SW 2.3 mph3.7 kmh 30.89 in1046.1 mb - 0.00 in0.0 mm 0.04 in1.0 mm
02:10 PM 37.9°F3.3°C 25.2°F-3.8°C 60% Calm Calm -- 30.96 in1048.4 mb - 0.00 in0.0 mm 0.04 in1.0 mm
02:20 PM 37.5°F3.1°C 26.0°F-3.3°C 63% 2.3 mph SSE3.7 kmh SSE 3.5 mph5.6 kmh 31.02 in1050.5 mb - 0.00 in0.0 mm 0.04 in1.0 mm
02:30 PM 36.2°F2.3°C 26.0°F-3.3°C 66% 1.2 mph S1.9 kmh S 2.3 mph3.7 kmh 31.05 in1051.5 mb - 0.00 in0.0 mm 0.04 in1.0 mm
02:40 PM 35.5°F1.9°C 26.0°F-3.3°C 68% 3.5 mph S5.6 kmh S 3.5 mph5.6 kmh 31.07 in1052.2 mb - 0.00 in0.0 mm 0.04 in1.0 mm
02:50 PM 35.3°F1.8°C 26.5°F-3.1°C 70% 3.5 mph SE5.6 kmh SE 2.3 mph3.7 kmh 31.08 in1052.5 mb - 0.00 in0.0 mm 0.04 in1.0 mm
03:00 PM 35.3°F1.8°C 26.5°F-3.1°C 70% 1.2 mph SE1.9 kmh SE 1.2 mph1.9 kmh 31.09 in1052.8 mb - 0.00 in0.0 mm 0.04 in1.0 mm
03:10 PM 35.3°F1.8°C 26.8°F-2.9°C 71% 1.2 mph S1.9 kmh S 2.3 mph3.7 kmh 31.09 in1052.8 mb - 0.00 in0.0 mm 0.04 in1.0 mm
03:20 PM 35.0°F1.7°C 26.9°F-2.8°C 72% Calm Calm 2.3 mph3.7 kmh 31.03 in1050.8 mb - 0.01 in0.3 mm 0.05 in1.3 mm
03:30 PM 34.5°F1.4°C 27.4°F-2.6°C 75% 2.3 mph SE3.7 kmh SE 1.2 mph1.9 kmh 31.06 in1051.8 mb - 0.00 in0.0 mm 0.05 in1.3 mm
03:40 PM 34.1°F1.2°C 28.3°F-2.1°C 79% 1.2 mph SE1.9 kmh SE 2.3 mph3.7 kmh 31.08 in1052.5 mb - 0.00 in0.0 mm 0.05 in1.3 mm
03:50 PM 33.8°F1.0°C 28.9°F-1.7°C 82% 1.2 mph SE1.9 kmh SE 1.2 mph1.9 kmh 31.10 in1053.2 mb - 0.00 in0.0 mm 0.05 in1.3 mm
04:00 PM 33.3°F0.7°C 29.3°F-1.5°C 85% 1.2 mph S1.9 kmh S 1.2 mph1.9 kmh 31.11 in1053.5 mb - 0.00 in0.0 mm 0.05 in1.3 mm
04:10 PM 32.9°F0.5°C 29.4°F-1.4°C 87% Calm Calm 2.3 mph3.7 kmh 31.12 in1053.8 mb - 0.00 in0.0 mm 0.05 in1.3 mm
04:20 PM 32.1°F0.1°C 29.5°F-1.4°C 90% Calm Calm -- 31.12 in1053.8 mb - 0.00 in0.0 mm 0.05 in1.3 mm
04:30 PM 31.3°F-0.4°C 29.5°F-1.4°C 93% 1.2 mph SSE1.9 kmh SSE -- 31.14 in1054.5 mb - 0.00 in0.0 mm 0.05 in1.3 mm
04:40 PM 30.5°F-0.8°C 28.9°F-1.7°C 94% Calm Calm -- 31.16 in1055.2 mb - 0.00 in0.0 mm 0.05 in1.3 mm
04:50 PM 29.4°F-1.4°C 27.9°F-2.3°C 94% Calm Calm -- 31.18 in1055.9 mb - 0.00 in0.0 mm 0.05 in1.3 mm
05:00 PM 28.3°F-2.1°C 26.8°F-2.9°C 94% Calm Calm -- 31.19 in1056.2 mb - 0.00 in0.0 mm 0.05 in1.3 mm
05:10 PM 27.7°F-2.4°C 26.2°F-3.2°C 94% Calm Calm -- 31.21 in1056.9 mb - 0.00 in0.0 mm 0.05 in1.3 mm
05:20 PM 26.9°F-2.8°C 25.4°F-3.7°C 94% Calm Calm -- 31.23 in1057.6 mb - 0.00 in0.0 mm 0.05 in1.3 mm
05:30 PM 25.9°F-3.4°C 24.4°F-4.2°C 94% Calm Calm -- 31.25 in1058.2 mb - 0.00 in0.0 mm 0.05 in1.3 mm
05:40 PM 25.9°F-3.4°C 24.4°F-4.2°C 94% Calm Calm -- 31.26 in1058.6 mb - 0.00 in0.0 mm 0.05 in1.3 mm
05:50 PM 25.9°F-3.4°C 24.4°F-4.2°C 94% Calm Calm -- 31.27 in1058.9 mb - 0.00 in0.0 mm 0.05 in1.3 mm
06:00 PM 25.9°F-3.4°C 24.4°F-4.2°C 94% Calm Calm -- 31.28 in1059.3 mb - 0.00 in0.0 mm 0.05 in1.3 mm
06:20 PM 24.6°F-4.1°C 22.8°F-5.1°C 93% Calm Calm -- 31.31 in1060.3 mb - 0.00 in0.0 mm 0.05 in1.3 mm
06:30 PM 24.8°F-4.0°C 23.1°F-4.9°C 93% Calm Calm -- 31.32 in1060.6 mb - 0.00 in0.0 mm 0.05 in1.3 mm
06:40 PM 24.5°F-4.2°C 22.8°F-5.1°C 93% Calm Calm -- 31.33 in1061.0 mb - 0.00 in0.0 mm 0.05 in1.3 mm
06:50 PM 25.3°F-3.7°C 23.8°F-4.6°C 94% Calm Calm -- 31.34 in1061.3 mb - 0.00 in0.0 mm 0.05 in1.3 mm
07:00 PM 25.7°F-3.5°C 24.2°F-4.3°C 94% 1.2 mph ESE1.9 kmh ESE 1.2 mph1.9 kmh 31.35 in1061.6 mb - 0.00 in0.0 mm 0.05 in1.3 mm
07:10 PM 25.9°F-3.4°C 24.4°F-4.2°C 94% Calm Calm -- 31.36 in1062.0 mb - 0.00 in0.0 mm 0.05 in1.3 mm
07:20 PM 26.1°F-3.3°C 24.6°F-4.1°C 94% 3.5 mph S5.6 kmh S 2.3 mph3.7 kmh 31.37 in1062.3 mb - 0.00 in0.0 mm 0.05 in1.3 mm
07:30 PM 26.9°F-2.8°C 25.4°F-3.7°C 94% 1.2 mph SE1.9 kmh SE 1.2 mph1.9 kmh 31.37 in1062.3 mb - 0.00 in0.0 mm 0.05 in1.3 mm
07:40 PM 27.4°F-2.6°C 25.9°F-3.4°C 94% 2.3 mph S3.7 kmh S 1.2 mph1.9 kmh 31.38 in1062.6 mb - 0.00 in0.0 mm 0.05 in1.3 mm
07:50 PM 28.1°F-2.2°C 26.6°F-3.0°C 94% 1.2 mph ESE1.9 kmh ESE 1.2 mph1.9 kmh 31.39 in1063.0 mb - 0.00 in0.0 mm 0.05 in1.3 mm
08:00 PM 27.9°F-2.3°C 26.4°F-3.1°C 94% Calm Calm -- 31.39 in1063.0 mb - 0.00 in0.0 mm 0.05 in1.3 mm
08:10 PM 27.7°F-2.4°C 26.2°F-3.2°C 94% 1.2 mph S1.9 kmh S -- 31.41 in1063.7 mb - 0.00 in0.0 mm 0.05 in1.3 mm
08:20 PM 27.9°F-2.3°C 26.4°F-3.1°C 94% 1.2 mph SW1.9 kmh SW 1.2 mph1.9 kmh 31.42 in1064.0 mb - 0.00 in0.0 mm 0.05 in1.3 mm
08:30 PM 27.6°F-2.4°C 26.1°F-3.3°C 94% 1.2 mph SSW1.9 kmh SSW 1.2 mph1.9 kmh 31.42 in1064.0 mb - 0.00 in0.0 mm 0.05 in1.3 mm
08:40 PM 28.1°F-2.2°C 26.6°F-3.0°C 94% 1.2 mph SSW1.9 kmh SSW 1.2 mph1.9 kmh 31.42 in1064.0 mb - 0.00 in0.0 mm 0.05 in1.3 mm
08:50 PM 28.9°F-1.7°C 27.4°F-2.6°C 94% 1.2 mph S1.9 kmh S 2.3 mph3.7 kmh 31.42 in1064.0 mb - 0.00 in0.0 mm 0.05 in1.3 mm
09:00 PM 29.2°F-1.6°C 27.7°F-2.4°C 94% 2.3 mph SE3.7 kmh SE 2.3 mph3.7 kmh 31.43 in1064.3 mb - 0.00 in0.0 mm 0.05 in1.3 mm
09:10 PM 29.7°F-1.3°C 28.2°F-2.1°C 94% 1.2 mph S1.9 kmh S 1.2 mph1.9 kmh 31.43 in1064.3 mb - 0.00 in0.0 mm 0.05 in1.3 mm
09:20 PM 30.1°F-1.1°C 28.6°F-1.9°C 94% 1.2 mph E1.9 kmh E 2.3 mph3.7 kmh 31.44 in1064.7 mb - 0.00 in0.0 mm 0.05 in1.3 mm
09:30 PM 30.6°F-0.8°C 29.1°F-1.6°C 94% 1.2 mph S1.9 kmh S 1.2 mph1.9 kmh 31.45 in1065.0 mb - 0.00 in0.0 mm 0.05 in1.3 mm
09:40 PM 30.9°F-0.6°C 29.4°F-1.4°C 94% 1.2 mph SSW1.9 kmh SSW 1.2 mph1.9 kmh 31.46 in1065.4 mb - 0.00 in0.0 mm 0.05 in1.3 mm
09:50 PM 31.1°F-0.5°C 29.8°F-1.2°C 95% 1.2 mph W1.9 kmh W 1.2 mph1.9 kmh 31.47 in1065.7 mb - 0.00 in0.0 mm 0.05 in1.3 mm
10:00 PM 31.4°F-0.3°C 30.1°F-1.1°C 95% 1.2 mph W1.9 kmh W 1.2 mph1.9 kmh 31.48 in1066.0 mb - 0.00 in0.0 mm 0.05 in1.3 mm
10:10 PM 31.6°F-0.2°C 30.3°F-0.9°C 95% 1.2 mph SE1.9 kmh SE 2.3 mph3.7 kmh 31.49 in1066.4 mb - 0.00 in0.0 mm 0.05 in1.3 mm
10:20 PM 31.7°F-0.2°C 30.4°F-0.9°C 95% 3.5 mph SE5.6 kmh SE 2.3 mph3.7 kmh 31.49 in1066.4 mb - 0.00 in0.0 mm 0.05 in1.3 mm
10:30 PM 31.7°F-0.2°C 30.4°F-0.9°C 95% Calm Calm -- 31.49 in1066.4 mb - 0.00 in0.0 mm 0.05 in1.3 mm
10:40 PM 31.8°F-0.1°C 30.5°F-0.8°C 95% 2.3 mph SSE3.7 kmh SSE 2.3 mph3.7 kmh 31.49 in1066.4 mb - 0.00 in0.0 mm 0.05 in1.3 mm
10:50 PM 31.6°F-0.2°C 30.3°F-0.9°C 95% Calm Calm -- 31.49 in1066.4 mb - 0.00 in0.0 mm 0.05 in1.3 mm
11:00 PM 31.7°F-0.2°C 30.4°F-0.9°C 95% 2.3 mph S3.7 kmh S 2.3 mph3.7 kmh 31.49 in1066.4 mb - 0.00 in0.0 mm 0.05 in1.3 mm
11:10 PM 31.9°F-0.1°C 30.6°F-0.8°C 95% 1.2 mph SSE1.9 kmh SSE 2.3 mph3.7 kmh 31.49 in1066.4 mb - 0.00 in0.0 mm 0.05 in1.3 mm
11:20 PM 31.9°F-0.1°C 30.6°F-0.8°C 95% 3.5 mph S5.6 kmh S 2.3 mph3.7 kmh 31.49 in1066.4 mb - 0.00 in0.0 mm 0.05 in1.3 mm
11:30 PM 31.9°F-0.1°C 30.6°F-0.8°C 95% 2.3 mph S3.7 kmh S 2.3 mph3.7 kmh 31.49 in1066.4 mb - 0.00 in0.0 mm 0.05 in1.3 mm
11:40 PM 31.7°F-0.2°C 30.4°F-0.9°C 95% 3.5 mph SW5.6 kmh SW 2.3 mph3.7 kmh 31.49 in1066.4 mb - 0.00 in0.0 mm 0.05 in1.3 mm
11:50 PM 31.1°F-0.5°C 29.8°F-1.2°C 95% Calm Calm -- 31.48 in1066.0 mb - 0.00 in0.0 mm 0.05 in1.3 mm